Latest Weather Observations for Liawenee

IDT60801

Issued at 2:35 pm EST Wednesday 30 July 2014 (issued every 30 minutes, with the page automatically refreshed every 10 minutes)

About weather observations | Map of weather stations | Latest weather observations for TAS | Other Formats
Station Details ID: 096033 Name: LIAWENEE Lat: -41.90 Lon: 146.67 Height: 1057.0 m
Data from the previous 72 hours. | See also: Recent months at Liawenee
Date/Time
EST
Temp
°C
App
Temp
°C
Dew
Point
Rel
Hum
%
Delta-T
°C
Wind Press
QNH
hPa
Press
MSL
hPa
Rain
since 9 am
mm
Dir
 
Spd
km/h
Gust
km/h
Spd
kts
Gust
kts
30/02:30pm 5.4 -2.3 3.6 88 0.8 WNW 33 50 18 27 996.2 - 3.6
30/02:00pm 5.8 -4.3 4.0 88 0.8 WNW 46 70 25 38 996.6 998.4 3.6
30/01:30pm 5.6 -2.9 3.3 85 1.0 WNW 37 63 20 34 996.3 - 3.6
30/01:00pm 4.7 -3.4 3.5 92 0.5 WNW 35 54 19 29 997.2 999.1 3.6
30/12:31pm 3.8 -3.1 2.5 91 0.6 NW 28 50 15 27 997.5 - 3.4
30/12:30pm 3.9 -2.6 2.7 92 0.5 NW 26 43 14 23 997.5 - 3.2
30/12:00pm 3.9 -4.8 2.1 88 0.8 WNW 37 61 20 33 997.9 999.8 3.0
30/11:30am 3.8 -3.9 2.5 91 0.6 WNW 32 50 17 27 998.7 - 2.6
30/11:11am 4.4 -2.4 3.2 92 0.5 WNW 28 52 15 28 998.6 - 2.2
30/11:00am 3.6 -1.7 2.9 95 0.3 WNW 20 33 11 18 998.7 1000.6 2.2
30/10:30am 3.4 -2.4 2.4 93 0.4 WNW 22 33 12 18 999.1 - 1.0
30/10:00am 4.0 -4.2 2.5 90 0.7 WNW 35 54 19 29 998.9 1000.8 0.2
30/09:37am 3.7 -3.6 2.4 91 0.6 WNW 30 48 16 26 999.0 - 0.2
30/09:30am 3.4 -4.3 2.2 92 0.5 WNW 32 44 17 24 999.0 - 0.2
30/09:00am 3.1 -4.3 1.9 92 0.5 WNW 30 43 16 23 999.0 1000.9 25.6
30/08:30am 3.2 -4.6 1.4 88 0.7 WNW 32 50 17 27 998.2 - 25.6
30/08:02am 2.1 -5.8 0.9 92 0.5 WNW 32 50 17 27 998.5 - 25.6
30/08:00am 2.2 -5.9 1.0 92 0.5 WNW 33 50 18 27 998.5 1000.4 25.6
30/07:37am 1.9 -5.6 0.9 93 0.4 WNW 30 48 16 26 998.3 - 25.4
30/07:30am 1.8 -5.4 0.6 92 0.5 WNW 28 43 15 23 998.2 - 25.4
30/07:02am 1.9 -5.3 0.4 90 0.6 NW 28 48 15 26 998.1 - 25.4
30/07:00am 1.8 -5.0 0.5 91 0.5 WNW 26 48 14 26 998.0 999.9 25.4
30/06:30am 1.2 -5.7 0.3 94 0.4 WNW 26 39 14 21 998.1 - 25.4
30/06:00am 1.0 -5.6 -0.1 92 0.4 WNW 24 35 13 19 998.3 1000.3 25.4
30/05:30am 0.5 -6.1 -0.1 96 0.2 W 24 35 13 19 998.6 - 25.2
30/05:00am 0.7 -7.4 -0.6 91 0.5 W 32 46 17 25 998.5 1000.4 24.8
30/04:32am 1.4 -7.8 -1.0 84 0.9 W 37 56 20 30 997.6 - 24.8
30/04:30am 1.3 -8.2 -0.9 85 0.8 W 39 56 21 30 997.7 - 24.8
30/04:15am 1.5 -7.9 -0.3 88 0.7 W 39 61 21 33 997.5 - 24.8
30/04:00am 1.1 -7.9 0.2 94 0.4 W 37 50 20 27 997.6 999.5 24.6
30/03:45am 0.8 -6.4 0.4 97 0.2 W 28 50 15 27 997.5 - 24.2
30/03:44am 0.8 -6.1 0.4 97 0.2 W 26 50 14 27 997.5 - 24.2
30/03:30am 0.4 -6.9 0.0 97 0.2 W 28 32 15 17 997.1 - 23.8
30/03:00am 2.2 -8.7 -0.9 80 1.2 W 46 65 25 35 996.2 998.1 23.6
30/02:30am 2.2 -9.8 -0.9 80 1.2 W 52 78 28 42 995.8 - 23.6
30/02:00am 1.8 -8.9 0.3 90 0.6 W 46 69 25 37 995.2 997.1 23.6
30/01:30am 2.3 -9.6 -0.3 83 1.0 W 52 82 28 44 994.1 - 23.6
30/01:00am 2.4 -10.2 0.0 84 1.0 W 56 83 30 45 993.1 994.9 23.4
30/12:30am 2.1 -10.1 0.2 87 0.8 W 54 80 29 43 993.2 - 23.4
30/12:18am 2.2 -8.8 0.7 90 0.6 W 48 80 26 43 993.1 - 23.4
30/12:00am 1.7 -6.8 1.0 95 0.3 W 35 57 19 31 992.9 994.7 23.2
 
Date/Time
EST
Temp
°C
App
Temp
°C
Dew
Point
Rel
Hum
%
Delta-T
°C
Wind Press
QNH
hPa
Press
MSL
hPa
Rain
since 9 am
mm
Dir
 
Spd
km/h
Gust
km/h
Spd
kts
Gust
kts
29/11:30pm 2.1 -7.9 0.9 92 0.5 W 43 63 23 34 992.2 - 22.4
29/11:00pm 2.2 -9.2 0.7 90 0.6 W 50 76 27 41 992.4 994.1 22.0
29/10:30pm 1.1 -9.9 0.4 95 0.3 W 48 74 26 40 992.2 - 21.8
29/10:00pm 2.5 -7.1 0.9 89 0.7 W 41 69 22 37 991.2 993.0 20.6
29/09:30pm 1.7 -8.5 1.0 95 0.3 W 44 63 24 34 991.9 - 19.6
29/09:09pm 3.2 -7.4 0.6 83 1.1 W 46 80 25 43 990.9 - 18.8
29/09:02pm 2.6 -7.1 0.8 88 0.7 W 41 59 22 32 990.7 - 18.8
29/09:00pm 2.5 -7.2 0.6 87 0.8 W 41 57 22 31 990.8 992.5 18.8
29/08:47pm 3.0 -10.5 0.7 85 0.9 W 61 83 33 45 990.9 - 18.8
29/08:46pm 3.0 -10.4 0.9 86 0.9 W 61 78 33 42 990.9 - 18.8
29/08:30pm 2.6 -7.0 1.1 90 0.6 W 41 63 22 34 991.0 - 18.2
29/08:05pm 3.4 -8.0 0.8 83 1.1 W 50 89 27 48 990.7 - 18.2
29/08:00pm 3.0 -7.5 1.2 88 0.8 W 46 70 25 38 990.7 992.4 18.2
29/07:30pm 2.9 -8.7 1.4 90 0.6 W 52 76 28 41 990.8 - 17.8
29/07:00pm 3.0 -8.8 0.4 83 1.1 W 52 78 28 42 990.0 991.7 17.6
29/06:30pm 3.9 -9.2 2.7 92 0.5 W 61 98 33 53 989.9 - 17.4
29/06:00pm 4.8 -7.5 3.1 89 0.8 W 57 95 31 51 988.4 990.0 16.6
29/05:54pm 5.1 -6.2 3.3 88 0.8 W 52 93 28 50 988.4 - 16.6
29/05:30pm 5.5 -5.3 4.0 90 0.7 WNW 50 74 27 40 987.7 - 16.0
29/05:00pm 5.2 -3.9 4.0 92 0.5 WNW 41 67 22 36 988.0 989.7 15.6
29/04:30pm 5.6 -3.1 4.1 90 0.7 WNW 39 61 21 33 987.8 - 14.2
29/04:00pm 5.5 -2.8 4.3 92 0.6 WNW 37 67 20 36 988.6 990.2 14.2
29/03:30pm 5.1 -1.5 4.1 93 0.5 NW 28 54 15 29 988.5 - 13.2
29/03:07pm 4.7 -2.0 3.7 93 0.4 NW 28 46 15 25 989.3 - 12.4
29/03:00pm 4.7 -2.4 3.5 92 0.5 NW 30 46 16 25 989.4 991.0 12.4
29/02:30pm 4.5 -2.3 3.3 92 0.5 NW 28 52 15 28 990.3 - 11.8
29/02:00pm 4.5 -3.0 3.3 92 0.5 WNW 32 56 17 30 990.1 991.8 11.0
29/01:30pm 4.7 -4.1 3.5 92 0.5 WNW 39 59 21 32 990.4 - 10.8
29/01:00pm 4.0 -4.6 2.8 92 0.5 WNW 37 57 20 31 991.1 992.9 10.6
29/12:42pm 2.7 -5.1 2.0 95 0.3 WNW 32 50 17 27 991.6 - 10.4
29/12:30pm 2.1 -5.0 1.5 96 0.2 WNW 28 43 15 23 991.8 - 10.4
29/12:00pm 1.8 -5.7 1.1 95 0.3 WNW 30 50 16 27 992.5 994.2 8.4
29/11:30am 3.3 -6.5 2.1 92 0.5 WNW 43 72 23 39 992.2 - 5.4
29/11:28am 3.5 -7.3 2.0 90 0.6 WNW 48 72 26 39 992.2 - 5.4
29/11:09am 3.1 -3.9 1.9 92 0.5 NW 28 54 15 29 992.2 - 4.8
29/11:00am 2.2 -3.7 1.5 95 0.3 NW 22 39 12 21 992.7 994.5 4.6
29/10:30am 3.0 -5.7 1.8 92 0.5 WNW 37 57 20 31 993.2 - 1.4
29/10:20am 3.8 -5.7 2.0 88 0.8 WNW 41 80 22 43 993.0 - 0.8
29/10:00am 4.6 -4.0 2.8 88 0.8 WNW 37 59 20 32 993.0 994.8 0.4
29/09:30am 5.2 -2.4 4.0 92 0.5 WNW 33 57 18 31 993.0 - 0.0
29/09:00am 4.8 -2.9 3.6 92 0.5 WNW 33 52 18 28 993.0 994.8 25.2
29/08:36am 4.6 -2.5 3.6 93 0.4 WNW 30 48 16 26 993.2 - 25.2
29/08:30am 4.7 -2.0 3.7 93 0.4 WNW 28 43 15 23 993.4 - 25.0
29/08:01am 4.9 -1.8 3.7 92 0.5 WNW 28 46 15 25 993.9 - 23.8
29/08:00am 4.8 -1.9 3.8 93 0.5 WNW 28 43 15 23 993.8 995.6 23.8
29/07:32am 5.2 -1.5 3.9 91 0.6 NW 28 46 15 25 994.0 - 21.0
29/07:30am 5.3 -1.8 3.8 90 0.7 NW 30 46 16 25 993.9 - 20.8
29/07:28am 5.3 -1.4 3.8 90 0.7 NW 28 46 15 25 994.0 - 20.6
29/07:00am 5.1 -0.4 3.9 92 0.5 NW 22 35 12 19 994.1 995.9 19.0
29/06:32am 5.4 -1.6 4.1 91 0.6 NW 30 50 16 27 994.6 - 18.6
29/06:30am 5.4 -1.6 4.1 91 0.6 NW 30 43 16 23 994.7 - 18.2
29/06:13am 5.1 -1.6 3.6 90 0.7 NW 28 48 15 26 994.6 - 18.0
29/06:00am 4.7 -0.5 3.4 91 0.6 NNW 20 35 11 19 994.6 996.4 17.6
29/05:30am 4.6 -1.0 3.3 91 0.6 NNW 22 43 12 23 995.0 - 15.4
29/05:00am 3.9 -1.4 2.9 93 0.4 NW 20 41 11 22 996.5 998.3 14.4
29/04:30am 4.1 -1.0 2.9 92 0.5 NNW 19 32 10 17 997.1 - 10.6
29/04:00am 4.9 -1.8 3.6 91 0.6 NW 28 46 15 25 996.9 998.8 7.8
29/03:51am 4.7 -2.0 3.5 92 0.5 NW 28 52 15 28 996.9 - 7.8
29/03:30am 3.6 -2.1 2.7 94 0.4 NW 22 37 12 20 997.8 - 7.4
29/03:00am 3.6 -2.6 2.4 92 0.5 NW 24 41 13 22 998.5 1000.4 4.8
29/02:30am 4.6 -2.2 3.1 90 0.7 NW 28 46 15 25 998.6 - 3.0
29/02:00am 3.7 -2.8 2.7 93 0.4 NW 26 41 14 22 999.2 1001.2 2.6
29/01:30am 4.0 -2.9 2.7 91 0.6 NW 28 48 15 26 999.7 - 1.8
29/01:25am 4.2 -2.6 2.9 91 0.6 NW 28 48 15 26 999.8 - 1.6
29/01:00am 3.8 -2.3 2.5 91 0.6 NW 24 43 13 23 999.7 1001.6 1.6
29/12:30am 3.4 -2.9 1.6 88 0.8 NW 24 39 13 21 1000.4 - 1.4
29/12:00am 3.4 -2.4 2.2 92 0.5 WNW 22 35 12 19 1001.0 1003.0 1.2
 
Date/Time
EST
Temp
°C
App
Temp
°C
Dew
Point
Rel
Hum
%
Delta-T
°C
Wind Press
QNH
hPa
Press
MSL
hPa
Rain
since 9 am
mm
Dir
 
Spd
km/h
Gust
km/h
Spd
kts
Gust
kts
28/11:49pm 3.8 -3.1 2.3 90 0.6 NW 28 52 15 28 1001.1 - 1.0
28/11:30pm 3.5 -2.4 2.0 90 0.6 NW 22 39 12 21 1001.3 - 1.0
28/11:00pm 3.9 -2.3 1.9 87 0.9 NW 24 41 13 22 1002.0 1004.0 0.6
28/10:30pm 4.0 -2.3 1.7 85 1.0 WNW 24 33 13 18 1002.2 - 0.4
28/10:00pm 4.0 -3.0 1.9 86 0.9 NW 28 46 15 25 1002.4 1004.5 0.4
28/09:30pm 3.8 -2.1 2.0 88 0.8 NW 22 43 12 23 1002.7 - 0.2
28/09:00pm 3.7 -2.5 2.1 89 0.7 WNW 24 37 13 20 1002.6 1004.6 0.2
28/08:30pm 3.5 -1.9 2.2 91 0.6 NW 20 35 11 19 1002.9 - 0.2
28/08:00pm 3.1 -1.8 1.9 92 0.5 NW 17 30 9 16 1003.2 1005.3 0.2
28/07:30pm 3.2 -3.4 1.9 91 0.5 NW 26 43 14 23 1003.3 - 0.2
28/07:00pm 3.8 -3.6 2.0 88 0.8 NW 30 50 16 27 1003.0 1005.0 0.0
28/06:31pm 4.3 -2.7 1.8 84 1.1 NW 28 52 15 28 1002.7 - 0.0
28/06:30pm 4.4 -2.2 1.9 84 1.1 NW 26 52 14 28 1002.7 - 0.0
28/06:20pm 4.3 -2.8 1.5 82 1.2 NW 28 48 15 26 1002.8 - 0.0
28/06:00pm 4.6 -1.1 0.7 76 1.6 NNW 20 37 11 20 1002.8 1004.8 0.0
28/05:30pm 4.4 -2.0 0.9 78 1.5 NW 24 41 13 22 1003.0 - 0.0
28/05:00pm 4.7 -1.0 -0.7 68 2.2 NW 19 32 10 17 1003.1 1005.2 0.0
28/04:30pm 5.7 -0.1 0.1 67 2.3 NW 20 35 11 19 1003.7 - 0.0
28/04:00pm 6.4 -1.2 0.3 65 2.6 WNW 30 50 16 27 1004.0 1006.1 0.0
28/03:33pm 6.4 -1.2 0.5 66 2.5 WNW 30 50 16 27 1004.1 - 0.0
28/03:30pm 6.7 -0.1 0.6 65 2.6 WNW 26 43 14 23 1004.1 - 0.0
28/03:00pm 7.3 -0.3 0.5 62 2.9 WNW 30 48 16 26 1004.3 1006.4 0.0
28/02:30pm 7.2 -1.1 -0.3 59 3.1 WNW 33 54 18 29 1004.3 - 0.0
28/02:10pm 7.8 -1.7 -0.7 55 3.5 WNW 39 67 21 36 1004.5 - 0.0
28/02:09pm 7.9 -0.8 -0.3 56 3.4 WNW 35 52 19 28 1004.4 - 0.0
28/02:00pm 7.8 2.4 1.0 62 2.9 NW 19 30 10 16 1004.4 1006.5 0.0
28/01:38pm 7.1 -0.6 -0.1 60 3.0 WNW 30 57 16 31 1004.8 - 0.0
28/01:30pm 8.2 1.0 0.9 60 3.1 WNW 28 43 15 23 1004.4 - 0.0
28/01:00pm 8.5 0.4 0.7 58 3.4 WNW 33 54 18 29 1005.0 1007.1 0.0
28/12:30pm 8.3 0.8 1.0 60 3.2 WNW 30 54 16 29 1005.4 - 0.0
28/12:00pm 8.1 0.1 0.6 59 3.2 WNW 32 54 17 29 1006.0 1008.1 0.0
28/11:37am 8.9 2.0 2.3 63 3.0 WNW 28 48 15 26 1006.3 - 0.0
28/11:30am 9.2 3.3 3.8 69 2.5 W 24 43 13 23 1006.3 - 0.0
28/11:00am 7.9 2.0 2.0 66 2.6 WNW 22 37 12 20 1006.8 1008.9 0.0
28/10:30am 6.4 0.3 2.7 77 1.6 NW 24 33 13 18 1007.2 - 0.0
28/10:00am 6.5 1.1 2.4 75 1.8 NW 20 30 11 16 1007.1 1009.2 0.0
28/09:30am 5.9 0.4 1.8 75 1.8 NW 20 32 11 17 1007.1 - 0.0
28/09:00am 5.0 -0.6 1.3 77 1.6 NW 20 35 11 19 1007.2 1009.4 0.4
28/08:30am 4.1 -1.9 1.0 80 1.3 WNW 22 37 12 20 1007.1 - 0.4
28/08:00am 3.8 -2.2 1.2 83 1.1 WNW 22 33 12 18 1007.3 1009.5 0.4
28/07:30am 4.3 -1.8 2.8 90 0.7 WNW 24 33 13 18 1007.5 - 0.4
28/07:00am 4.7 -0.5 3.4 91 0.6 WNW 20 32 11 17 1007.8 1009.9 0.4
28/06:30am 5.3 0.2 4.1 92 0.5 WNW 20 30 11 16 1008.0 - 0.2
28/06:01am 5.8 -0.8 4.1 89 0.8 NW 28 46 15 25 1007.2 - 0.0
28/06:00am 5.7 -0.9 4.0 89 0.8 NW 28 44 15 24 1007.2 1009.4 0.0
28/05:41am 6.1 -0.5 4.3 88 0.8 NW 28 48 15 26 1007.3 - 0.0
28/05:30am 5.9 0.8 4.2 89 0.8 NW 20 37 11 20 1007.2 - 0.0
28/05:09am 6.0 -0.6 4.0 87 0.9 NW 28 48 15 26 1007.3 - 0.0
28/05:00am 5.9 0.0 4.1 88 0.8 WNW 24 41 13 22 1007.4 1009.6 0.0
28/04:30am 6.0 -0.3 3.8 86 1.0 NW 26 41 14 22 1007.7 - 0.0
28/04:00am 6.2 -0.9 3.5 83 1.2 NW 30 44 16 24 1007.9 1010.0 0.0
28/03:30am 5.9 -1.3 3.2 83 1.2 NW 30 48 16 26 1007.9 - 0.0
28/03:00am 6.2 -1.5 3.4 82 1.3 WNW 33 52 18 28 1008.3 1010.5 0.0
28/02:30am 6.1 -1.6 3.6 84 1.1 WNW 33 52 18 28 1008.9 - 0.0
28/02:00am 5.9 -2.1 3.6 85 1.0 WNW 35 56 19 30 1009.0 1011.2 0.0
28/01:30am 5.9 -2.2 3.2 83 1.2 WNW 35 61 19 33 1009.1 - 0.0
28/01:00am 5.5 -2.2 3.3 86 1.0 WNW 33 54 18 29 1009.2 1011.4 0.0
28/12:42am 5.5 -1.6 3.5 87 0.9 WNW 30 50 16 27 1009.8 - 0.0
28/12:30am 5.4 -2.7 3.4 87 0.9 WNW 35 52 19 28 1009.9 - 0.0
28/12:00am 5.4 -2.1 3.6 88 0.8 WNW 32 50 17 27 1010.4 1012.7 0.0
 
Date/Time
EST
Temp
°C
App
Temp
°C
Dew
Point
Rel
Hum
%
Delta-T
°C
Wind Press
QNH
hPa
Press
MSL
hPa
Rain
since 9 am
mm
Dir
 
Spd
km/h
Gust
km/h
Spd
kts
Gust
kts
27/11:30pm 5.1 -2.5 2.8 85 1.0 WNW 32 50 17 27 1011.0 - 0.0
27/11:00pm 5.0 -2.2 3.0 87 0.9 WNW 30 48 16 26 1011.0 1013.2 0.0
27/10:55pm 5.0 -1.8 3.0 87 0.9 WNW 28 48 15 26 1011.2 - 0.0
27/10:30pm 5.0 -1.4 3.3 89 0.8 WNW 26 44 14 24 1011.4 - 0.0
27/10:16pm 5.1 -1.6 3.9 92 0.5 WNW 28 46 15 25 1012.0 - 0.0
27/10:00pm 5.3 0.4 4.0 91 0.6 NW 19 30 10 16 1012.2 1014.5 0.0
27/09:30pm 5.3 0.1 3.8 90 0.7 NW 20 35 11 19 1012.6 - 0.0
27/09:00pm 5.3 -0.3 3.6 89 0.8 NW 22 35 12 19 1012.5 1014.8 0.0
27/08:30pm 5.1 -0.1 3.6 90 0.7 NW 20 41 11 22 1012.6 - 0.0
27/08:00pm 5.3 0.1 3.3 87 0.9 NW 20 32 11 17 1012.7 1015.1 0.0
27/07:30pm 5.3 0.2 3.0 85 1.0 NW 19 32 10 17 1013.0 - 0.0
27/07:00pm 5.4 0.7 3.3 86 0.9 NNW 17 26 9 14 1013.3 1015.6 0.0
27/06:30pm 5.3 0.7 3.5 88 0.8 NW 17 28 9 15 1013.3 - 0.0
27/06:00pm 5.1 0.0 3.3 88 0.8 NW 19 32 10 17 1013.4 1015.7 0.0
27/05:30pm 5.0 -0.3 3.0 87 0.9 WNW 20 33 11 18 1013.5 - 0.0
27/05:00pm 5.0 -0.2 2.4 83 1.1 WNW 19 28 10 15 1013.3 1015.6 0.0
27/04:30pm 5.6 -0.2 2.1 78 1.5 WNW 22 33 12 18 1013.4 - 0.0
27/04:00pm 5.8 -0.9 1.5 74 1.8 WNW 26 41 14 22 1013.6 1016.0 0.0
27/03:30pm 6.1 -1.3 2.0 75 1.8 WNW 30 48 16 26 1014.0 - 0.0
27/03:10pm 6.6 -0.9 1.3 69 2.3 WNW 30 50 16 27 1014.0 - 0.0
27/03:00pm 6.7 0.4 1.4 69 2.3 WNW 24 41 13 22 1014.1 1016.4 0.0

Other Formats:

Comma delimited format used in spreadsheet applications
http://www.bom.gov.au/fwo/IDT60801/IDT60801.95959.axf

JavaScript Object Notation format (JSON) in row-major order
http://www.bom.gov.au/fwo/IDT60801/IDT60801.95959.json